Terminal Aerodrome Forecast
Issued by NWS Pendleton, OR

Home | Current Version | Previous Version | Text Only | Print | Product List | Glossary On
Versions: 1 2 3 4 5 6 7 8 9 10 11 12 13 14 15 16 17 18 19 20 21 22 23 24 25 26 27 28 29 30 31 32 33 34
000
FTUS46 KPDT 301700
TAFPDT
TAF
KPDT 301739Z 3018/3118 17003KT 2SM BR OVC009
      TEMPO 3018/3021 P6SM NSW OVC012
     FM302100 35004KT P6SM OVC015
     FM310300 VRB03KT 3SM BR OVC005
     FM311600 31004KT 6SM BR OVC011=

USA.gov is the U.S. government's official web portal to all federal, state and local government web resources and services.